Time;durP1;ratioP1;P1;durP2;ratioP2;P2;SDS_P1;SDS_P2;PMS_P1;PMS_P2;Temp;Humidity;BMP_temperature;BMP_pressure;BME280_temperature;BME280_humidity;BME280_pressure;Samples;Min_cycle;Max_cycle;Signal;HPM_P1;HPM_P2
2023/05/12 00:00:09;;;;;;;;;;;13.10;99.90;;;;;;5096544;27;19931;-81
2023/05/12 00:02:35;;;;;;;;;;;12.90;99.90;;;;;;5092264;27;19927;-80
2023/05/12 00:05:01;;;;;;;;;;;12.90;99.90;;;;;;5091846;27;20368;-81
2023/05/12 00:07:26;;;;;;;;;;;13.10;99.90;;;;;;5098039;27;19931;-80
2023/05/12 00:09:52;;;;;;;;;;;13.10;99.90;;;;;;5093540;27;19930;-81
2023/05/12 00:12:17;;;;;;;;;;;13.00;99.90;;;;;;5115445;27;19930;-80
2023/05/12 00:14:43;;;;;;;;;;;12.80;99.90;;;;;;5117300;27;20006;-81
2023/05/12 00:17:08;;;;;;;;;;;12.80;99.90;;;;;;5112264;27;19985;-81
2023/05/12 00:19:35;;;;;;;;;;;12.80;99.90;;;;;;5097440;27;20486;-81
2023/05/12 00:22:01;;;;;;;;;;;12.90;99.90;;;;;;5115825;27;19932;-81
2023/05/12 00:24:26;;;;;;;;;;;13.10;99.90;;;;;;5117553;27;19931;-80
2023/05/12 00:26:53;;;;;;;;;;;13.00;99.90;;;;;;5115342;27;19927;-80
2023/05/12 00:29:18;;;;;;;;;;;13.00;99.90;;;;;;5114511;27;20347;-81
2023/05/12 00:31:44;;;;;;;;;;;13.00;99.90;;;;;;5097053;27;19927;-80
2023/05/12 00:34:10;;;;;;;;;;;12.90;99.90;;;;;;5112892;27;19923;-80
2023/05/12 00:36:35;;;;;;;;;;;13.00;99.90;;;;;;5094557;27;20716;-80
2023/05/12 00:39:02;;;;;;;;;;;13.10;99.90;;;;;;5096072;27;19928;-80
2023/05/12 00:41:28;;;;;;;;;;;13.00;99.90;;;;;;5090830;27;19923;-80
2023/05/12 00:43:53;;;;;;;;;;;13.00;99.90;;;;;;5114081;27;20651;-80
2023/05/12 00:46:19;;;;;;;;;;;12.90;99.90;;;;;;5091746;27;19975;-80
2023/05/12 00:48:45;;;;;;;;;;;13.00;99.90;;;;;;5114682;27;20569;-80
2023/05/12 00:51:11;;;;;;;;;;;13.10;99.90;;;;;;5117543;27;19924;-81
2023/05/12 00:53:36;;;;;;;;;;;13.00;99.90;;;;;;5081045;27;19924;-80
2023/05/12 00:56:02;;;;;;;;;;;13.10;99.90;;;;;;5114195;27;19927;-81
2023/05/12 00:58:28;;;;;;;;;;;13.20;99.90;;;;;;5116241;27;19956;-81
2023/05/12 01:00:53;;;;;;;;;;;13.00;99.90;;;;;;5089872;28;19924;-80
2023/05/12 01:03:19;;;;;;;;;;;12.90;99.90;;;;;;5095590;27;19934;-80
2023/05/12 01:05:47;;;;;;;;;;;13.10;99.90;;;;;;5112666;27;20627;-80
2023/05/12 01:08:15;;;;;;;;;;;12.90;99.90;;;;;;5115281;27;20296;-80
2023/05/12 01:10:44;;;;;;;;;;;13.10;99.90;;;;;;5102280;28;20384;-80
2023/05/12 01:13:10;;;;;;;;;;;12.90;99.90;;;;;;5110893;27;20985;-80
2023/05/12 01:15:36;;;;;;;;;;;12.90;99.90;;;;;;5117235;27;19923;-80
2023/05/12 01:18:03;;;;;;;;;;;12.90;99.90;;;;;;5094552;28;19927;-80
2023/05/12 01:20:30;;;;;;;;;;;13.00;99.90;;;;;;5096813;28;19931;-80
2023/05/12 01:22:57;;;;;;;;;;;12.90;99.90;;;;;;5114468;27;20611;-80
2023/05/12 01:25:23;;;;;;;;;;;12.80;99.90;;;;;;5099207;27;19934;-80
2023/05/12 01:27:49;;;;;;;;;;;12.80;99.90;;;;;;5112928;27;19938;-80
2023/05/12 01:30:17;;;;;;;;;;;12.80;99.90;;;;;;5117033;27;19956;-80
2023/05/12 01:32:43;;;;;;;;;;;12.70;99.90;;;;;;5116646;27;19924;-80
2023/05/12 01:35:08;;;;;;;;;;;12.90;99.90;;;;;;5117156;27;19927;-80
2023/05/12 01:37:34;;;;;;;;;;;12.70;99.90;;;;;;5092803;27;19927;-80
2023/05/12 01:40:00;;;;;;;;;;;12.80;99.90;;;;;;5112201;27;19927;-80
2023/05/12 01:42:25;;;;;;;;;;;12.90;99.90;;;;;;5118943;27;19928;-80
2023/05/12 01:44:51;;;;;;;;;;;12.80;99.90;;;;;;5115714;27;19930;-80
2023/05/12 01:47:16;;;;;;;;;;;12.90;99.90;;;;;;5115076;27;19975;-80
2023/05/12 01:49:42;;;;;;;;;;;12.90;99.90;;;;;;5081100;28;20456;-80
2023/05/12 01:52:07;;;;;;;;;;;12.80;99.90;;;;;;5116552;27;19931;-80
2023/05/12 01:54:33;;;;;;;;;;;13.00;99.90;;;;;;5098566;28;19927;-80
2023/05/12 01:56:58;;;;;;;;;;;12.80;99.90;;;;;;5111438;27;19931;-80
2023/05/12 01:59:24;;;;;;;;;;;12.80;99.90;;;;;;5115322;27;19927;-80
2023/05/12 02:01:50;;;;;;;;;;;12.80;99.90;;;;;;5117732;27;20415;-80
2023/05/12 02:04:15;;;;;;;;;;;13.00;99.90;;;;;;5113913;27;19931;-79
2023/05/12 02:06:41;;;;;;;;;;;12.90;99.90;;;;;;5121644;27;20030;-80
2023/05/12 02:09:07;;;;;;;;;;;13.10;99.90;;;;;;5122609;27;20432;-80
2023/05/12 02:11:32;;;;;;;;;;;13.10;99.90;;;;;;5122858;27;19932;-79
2023/05/12 02:13:58;;;;;;;;;;;13.00;99.90;;;;;;5103702;27;20128;-80
2023/05/12 02:16:23;;;;;;;;;;;12.90;99.90;;;;;;5103719;27;19984;-80
2023/05/12 02:18:49;;;;;;;;;;;13.00;99.90;;;;;;5116905;27;19987;-80
2023/05/12 02:21:15;;;;;;;;;;;12.90;99.90;;;;;;5097527;27;20429;-80
2023/05/12 02:23:40;;;;;;;;;;;13.00;99.90;;;;;;5120846;27;19976;-80
2023/05/12 02:26:06;;;;;;;;;;;13.10;99.90;;;;;;5097393;27;19927;-80
2023/05/12 02:28:32;;;;;;;;;;;13.30;99.90;;;;;;5102904;27;20000;-80
2023/05/12 02:30:57;;;;;;;;;;;13.10;99.90;;;;;;5118390;27;19935;-80
2023/05/12 02:33:23;;;;;;;;;;;13.20;99.90;;;;;;5124113;27;20050;-80
2023/05/12 02:35:49;;;;;;;;;;;13.20;99.90;;;;;;5119788;27;19935;-80
2023/05/12 02:38:14;;;;;;;;;;;13.10;99.90;;;;;;5119806;27;19984;-80
2023/05/12 02:40:40;;;;;;;;;;;13.00;99.90;;;;;;5120241;27;19977;-80
2023/05/12 02:43:06;;;;;;;;;;;12.90;99.90;;;;;;5098498;27;20042;-80
2023/05/12 02:45:32;;;;;;;;;;;13.20;99.90;;;;;;5087148;27;19932;-80
2023/05/12 02:47:58;;;;;;;;;;;13.00;99.90;;;;;;5121344;27;20287;-80
2023/05/12 02:50:23;;;;;;;;;;;13.10;99.90;;;;;;5106123;27;19928;-80
2023/05/12 02:52:49;;;;;;;;;;;13.00;99.90;;;;;;5102126;27;19931;-80
2023/05/12 02:55:15;;;;;;;;;;;13.00;99.90;;;;;;5122517;27;19927;-79
2023/05/12 02:57:42;;;;;;;;;;;13.00;99.90;;;;;;5118034;27;19977;-79
2023/05/12 03:00:07;;;;;;;;;;;12.90;99.90;;;;;;5120497;27;19957;-80
2023/05/12 03:02:34;;;;;;;;;;;13.00;99.90;;;;;;5121781;27;19923;-80
2023/05/12 03:04:59;;;;;;;;;;;12.80;99.90;;;;;;5105058;27;19990;-80
2023/05/12 03:07:25;;;;;;;;;;;13.00;99.90;;;;;;5122536;27;19974;-80
2023/05/12 03:09:50;;;;;;;;;;;12.90;99.90;;;;;;5122871;27;19927;-80
2023/05/12 03:12:16;;;;;;;;;;;13.00;99.90;;;;;;5100792;27;19949;-80
2023/05/12 03:14:42;;;;;;;;;;;12.70;99.90;;;;;;5119383;27;19935;-80
2023/05/12 03:17:07;;;;;;;;;;;12.70;99.90;;;;;;5119954;27;19927;-80
2023/05/12 03:19:33;;;;;;;;;;;12.80;99.90;;;;;;5123422;27;19930;-80
2023/05/12 03:21:59;;;;;;;;;;;12.80;99.90;;;;;;5120944;27;19935;-80
2023/05/12 03:24:25;;;;;;;;;;;13.00;99.90;;;;;;5120743;27;19962;-80
2023/05/12 03:26:51;;;;;;;;;;;12.80;99.90;;;;;;5101942;27;19931;-80
2023/05/12 03:29:16;;;;;;;;;;;12.90;99.90;;;;;;5102604;27;19928;-80
2023/05/12 03:31:42;;;;;;;;;;;13.00;99.90;;;;;;5120591;27;20092;-80
2023/05/12 03:34:07;;;;;;;;;;;12.90;99.90;;;;;;5119838;27;20014;-80
2023/05/12 03:36:33;;;;;;;;;;;13.00;99.90;;;;;;5119025;27;19942;-80
2023/05/12 03:38:58;;;;;;;;;;;12.90;99.90;;;;;;5120678;27;19931;-80
2023/05/12 03:41:24;;;;;;;;;;;13.10;99.90;;;;;;5121989;27;20059;-80
2023/05/12 03:43:50;;;;;;;;;;;13.10;99.90;;;;;;5084328;27;19928;-80
2023/05/12 03:46:15;;;;;;;;;;;13.20;99.90;;;;;;5119525;27;19949;-80
2023/05/12 03:48:41;;;;;;;;;;;13.10;99.90;;;;;;5116765;27;19935;-81
2023/05/12 03:51:06;;;;;;;;;;;13.20;99.90;;;;;;5118756;27;19953;-80
2023/05/12 03:53:32;;;;;;;;;;;13.30;99.90;;;;;;5100133;27;19935;-80
2023/05/12 03:56:03;;;;;;;;;;;13.20;99.90;;;;;;5115187;27;19931;-80
2023/05/12 03:58:28;;;;;;;;;;;13.20;99.90;;;;;;5099553;27;20338;-80
2023/05/12 04:00:55;;;;;;;;;;;13.40;99.90;;;;;;5099428;27;19973;-80
2023/05/12 04:03:21;;;;;;;;;;;13.30;99.90;;;;;;5101817;27;19970;-80
2023/05/12 04:05:46;;;;;;;;;;;13.40;99.90;;;;;;5118078;27;20044;-80
2023/05/12 04:08:12;;;;;;;;;;;13.30;99.90;;;;;;5118017;27;19935;-80
2023/05/12 04:10:38;;;;;;;;;;;13.30;99.90;;;;;;5100338;27;19955;-80
2023/05/12 04:13:04;;;;;;;;;;;13.60;99.90;;;;;;5101782;27;20396;-79
2023/05/12 04:15:31;;;;;;;;;;;13.40;99.90;;;;;;5098416;27;19935;-80
2023/05/12 04:17:56;;;;;;;;;;;13.50;99.90;;;;;;5118905;27;20004;-80
2023/05/12 04:20:22;;;;;;;;;;;13.40;99.90;;;;;;5117854;27;19936;-80
2023/05/12 04:22:48;;;;;;;;;;;13.30;99.90;;;;;;5098888;27;20289;-80
2023/05/12 04:25:13;;;;;;;;;;;13.50;99.90;;;;;;5095420;27;19934;-80
2023/05/12 04:27:39;;;;;;;;;;;13.30;99.90;;;;;;5098602;27;19942;-80
2023/05/12 04:30:05;;;;;;;;;;;13.40;99.90;;;;;;5095503;27;20412;-80
2023/05/12 04:32:30;;;;;;;;;;;13.40;99.90;;;;;;5099172;27;19934;-81
2023/05/12 04:34:56;;;;;;;;;;;13.40;99.90;;;;;;5098093;27;19934;-80
2023/05/12 04:37:22;;;;;;;;;;;13.40;99.90;;;;;;5100683;27;19952;-81
2023/05/12 04:39:47;;;;;;;;;;;13.50;99.90;;;;;;5098610;27;20791;-80
2023/05/12 04:42:13;;;;;;;;;;;13.50;99.90;;;;;;5119189;27;20439;-80
2023/05/12 04:44:38;;;;;;;;;;;13.40;99.90;;;;;;5114226;27;19980;-80
2023/05/12 04:47:04;;;;;;;;;;;13.40;99.90;;;;;;5100369;27;19927;-80
2023/05/12 04:49:30;;;;;;;;;;;13.40;99.90;;;;;;5099854;27;20372;-81
2023/05/12 04:51:55;;;;;;;;;;;13.40;99.90;;;;;;5117121;27;20376;-80
2023/05/12 04:54:21;;;;;;;;;;;13.30;99.90;;;;;;5095961;27;20084;-80
2023/05/12 04:56:46;;;;;;;;;;;13.40;99.90;;;;;;5113940;27;19924;-80
2023/05/12 04:59:14;;;;;;;;;;;13.30;99.90;;;;;;5097828;27;20408;-81
2023/05/12 05:01:40;;;;;;;;;;;13.50;99.90;;;;;;5081300;27;19940;-80
2023/05/12 05:04:06;;;;;;;;;;;13.30;99.90;;;;;;5087322;28;20039;-80
2023/05/12 05:06:32;;;;;;;;;;;13.50;99.90;;;;;;5116408;27;20376;-81
2023/05/12 05:08:57;;;;;;;;;;;13.40;99.90;;;;;;5100573;27;19927;-80
2023/05/12 05:11:23;;;;;;;;;;;13.40;99.90;;;;;;5115026;27;19928;-80
2023/05/12 05:13:48;;;;;;;;;;;13.60;99.90;;;;;;5101001;27;20419;-81
2023/05/12 05:16:14;;;;;;;;;;;13.50;99.90;;;;;;5101619;28;20034;-80
2023/05/12 05:18:45;;;;;;;;;;;13.40;99.90;;;;;;5102748;27;20775;-80
2023/05/12 05:21:11;;;;;;;;;;;13.60;99.90;;;;;;5098463;27;20054;-79
2023/05/12 05:23:37;;;;;;;;;;;13.60;99.90;;;;;;5082743;28;19924;-80
2023/05/12 05:26:02;;;;;;;;;;;13.50;99.90;;;;;;5093882;28;19969;-80
2023/05/12 05:28:29;;;;;;;;;;;13.60;99.90;;;;;;5119747;27;19974;-80
2023/05/12 05:30:55;;;;;;;;;;;13.60;99.90;;;;;;5102208;28;19928;-80
2023/05/12 05:33:21;;;;;;;;;;;13.80;99.90;;;;;;5118416;27;19923;-80
2023/05/12 05:35:47;;;;;;;;;;;13.60;99.90;;;;;;5103232;27;20623;-81
2023/05/12 05:38:12;;;;;;;;;;;13.60;99.90;;;;;;5098438;27;19942;-80
2023/05/12 05:40:38;;;;;;;;;;;13.60;99.90;;;;;;5104631;27;20076;-80
2023/05/12 05:43:04;;;;;;;;;;;13.60;99.90;;;;;;5079282;27;19932;-80
2023/05/12 05:45:30;;;;;;;;;;;13.70;99.90;;;;;;5070594;27;19931;-80
2023/05/12 05:47:55;;;;;;;;;;;13.70;99.90;;;;;;5096483;27;20050;-80
2023/05/12 05:50:21;;;;;;;;;;;13.70;99.90;;;;;;5109046;27;20100;-80
2023/05/12 05:52:46;;;;;;;;;;;14.00;99.90;;;;;;5088628;27;19930;-80
2023/05/12 05:55:12;;;;;;;;;;;14.00;99.90;;;;;;5105309;27;19935;-80
2023/05/12 05:57:37;;;;;;;;;;;13.70;99.90;;;;;;5088648;27;19935;-80
2023/05/12 06:00:04;;;;;;;;;;;13.70;99.90;;;;;;5081730;27;19931;-80
2023/05/12 06:02:32;;;;;;;;;;;13.80;99.90;;;;;;5103310;27;20050;-80
2023/05/12 06:04:58;;;;;;;;;;;13.80;99.90;;;;;;5103137;27;20334;-80
2023/05/12 06:07:24;;;;;;;;;;;13.60;99.90;;;;;;5088660;27;19924;-80
2023/05/12 06:09:52;;;;;;;;;;;13.70;99.90;;;;;;5103711;27;19934;-80
2023/05/12 06:12:17;;;;;;;;;;;13.70;99.90;;;;;;5089271;27;21052;-80
2023/05/12 06:14:45;;;;;;;;;;;13.80;99.90;;;;;;5092074;27;20733;-80
2023/05/12 06:17:10;;;;;;;;;;;13.80;99.90;;;;;;5120945;27;20455;-80
2023/05/12 06:19:36;;;;;;;;;;;13.80;99.90;;;;;;5119784;27;19927;-80
2023/05/12 06:22:02;;;;;;;;;;;13.90;99.90;;;;;;5120121;27;20438;-80
2023/05/12 06:24:27;;;;;;;;;;;14.00;99.90;;;;;;5121484;27;19932;-80
2023/05/12 06:26:53;;;;;;;;;;;14.10;99.90;;;;;;5123527;27;19927;-80
2023/05/12 06:29:20;;;;;;;;;;;13.80;99.90;;;;;;5104232;27;20651;-81
2023/05/12 06:31:45;;;;;;;;;;;14.00;99.90;;;;;;5096219;27;20014;-80
2023/05/12 06:34:11;;;;;;;;;;;13.90;99.90;;;;;;5099861;27;20410;-80
2023/05/12 06:36:37;;;;;;;;;;;14.10;99.90;;;;;;5120150;27;19923;-80
2023/05/12 06:39:03;;;;;;;;;;;14.20;99.90;;;;;;5101520;27;20019;-80
2023/05/12 06:41:29;;;;;;;;;;;14.20;99.90;;;;;;5123306;27;19962;-80
2023/05/12 06:43:54;;;;;;;;;;;14.30;99.90;;;;;;5122402;27;19931;-80
2023/05/12 06:46:20;;;;;;;;;;;14.40;99.90;;;;;;5101690;27;19965;-80
2023/05/12 06:48:46;;;;;;;;;;;14.40;99.90;;;;;;5105672;27;19986;-80
2023/05/12 06:51:12;;;;;;;;;;;14.40;99.90;;;;;;5119559;27;19931;-80
2023/05/12 06:53:38;;;;;;;;;;;14.40;99.90;;;;;;5118455;27;19967;-80
2023/05/12 06:56:04;;;;;;;;;;;14.30;99.90;;;;;;5120620;27;19934;-80
2023/05/12 06:58:29;;;;;;;;;;;14.50;99.90;;;;;;5100985;27;19939;-80
2023/05/12 07:00:55;;;;;;;;;;;14.40;99.90;;;;;;5105448;27;19928;-80
2023/05/12 07:03:20;;;;;;;;;;;14.40;99.90;;;;;;5119746;27;19934;-79
2023/05/12 07:05:46;;;;;;;;;;;14.60;99.90;;;;;;5102156;27;20378;-80
2023/05/12 07:08:11;;;;;;;;;;;14.70;99.90;;;;;;5123130;27;20338;-80
2023/05/12 07:10:37;;;;;;;;;;;14.60;99.90;;;;;;5103343;27;19934;-80
2023/05/12 07:13:03;;;;;;;;;;;14.70;99.90;;;;;;5098110;27;19977;-80
2023/05/12 07:15:28;;;;;;;;;;;14.60;99.90;;;;;;5104717;27;19977;-80
2023/05/12 07:17:54;;;;;;;;;;;14.70;99.90;;;;;;5105494;27;19928;-80
2023/05/12 07:20:20;;;;;;;;;;;14.60;99.90;;;;;;5102614;27;19931;-80
2023/05/12 07:22:46;;;;;;;;;;;14.60;99.90;;;;;;5103812;27;19924;-79
2023/05/12 07:25:12;;;;;;;;;;;14.70;99.90;;;;;;5102786;27;20543;-80
2023/05/12 07:27:37;;;;;;;;;;;14.90;99.90;;;;;;5119204;27;19928;-80
2023/05/12 07:30:07;;;;;;;;;;;14.80;99.90;;;;;;5103245;27;20296;-80
2023/05/12 07:32:32;;;;;;;;;;;15.00;99.90;;;;;;5101347;27;19927;-80
2023/05/12 07:34:58;;;;;;;;;;;15.00;99.90;;;;;;5100796;27;19928;-80
2023/05/12 07:37:24;;;;;;;;;;;15.00;99.90;;;;;;5103577;27;19927;-80
2023/05/12 07:39:49;;;;;;;;;;;15.10;99.90;;;;;;5102376;27;19923;-79
2023/05/12 07:42:15;;;;;;;;;;;15.00;99.90;;;;;;5104350;27;19923;-80
2023/05/12 07:44:40;;;;;;;;;;;15.00;99.90;;;;;;5102259;27;19931;-80
2023/05/12 07:47:06;;;;;;;;;;;15.00;99.90;;;;;;5102838;27;19924;-80
2023/05/12 07:49:31;;;;;;;;;;;15.10;99.90;;;;;;5103608;27;20303;-79
2023/05/12 07:51:57;;;;;;;;;;;15.40;99.90;;;;;;5102873;27;19927;-79
2023/05/12 07:54:23;;;;;;;;;;;15.60;99.90;;;;;;5118721;27;20307;-79
2023/05/12 07:56:48;;;;;;;;;;;15.50;99.90;;;;;;5101928;28;19935;-80
2023/05/12 07:59:14;;;;;;;;;;;15.70;99.90;;;;;;5086818;27;19931;-79
2023/05/12 08:01:40;;;;;;;;;;;15.60;99.90;;;;;;5102022;27;19923;-81
2023/05/12 08:04:05;;;;;;;;;;;15.70;99.90;;;;;;5088146;27;20018;-80
2023/05/12 08:06:31;;;;;;;;;;;15.70;99.90;;;;;;5082701;27;20178;-80
2023/05/12 08:08:57;;;;;;;;;;;15.80;99.90;;;;;;5092746;27;19927;-80
2023/05/12 08:11:23;;;;;;;;;;;15.90;99.90;;;;;;5095772;27;20685;-80
2023/05/12 08:13:49;;;;;;;;;;;15.80;99.90;;;;;;5101077;27;19933;-79
2023/05/12 08:16:14;;;;;;;;;;;16.20;99.90;;;;;;5101135;27;19927;-79
2023/05/12 08:18:40;;;;;;;;;;;16.30;99.90;;;;;;5101420;27;19970;-80
2023/05/12 08:21:06;;;;;;;;;;;16.20;99.90;;;;;;5104114;27;19966;-79
2023/05/12 08:23:31;;;;;;;;;;;16.20;99.90;;;;;;5099878;27;20513;-79
2023/05/12 08:25:57;;;;;;;;;;;16.20;99.90;;;;;;5103693;27;20428;-79
2023/05/12 08:28:22;;;;;;;;;;;16.20;99.90;;;;;;5120413;27;20006;-79
2023/05/12 08:30:48;;;;;;;;;;;16.40;99.90;;;;;;5120669;27;19931;-80
2023/05/12 08:33:13;;;;;;;;;;;16.60;99.90;;;;;;5101252;27;19927;-79
2023/05/12 08:35:39;;;;;;;;;;;16.30;99.90;;;;;;5102840;27;19936;-79
2023/05/12 08:38:05;;;;;;;;;;;16.50;99.90;;;;;;5099306;27;19931;-80
2023/05/12 08:40:33;;;;;;;;;;;16.50;99.90;;;;;;5103688;27;19977;-80
2023/05/12 08:43:05;;;;;;;;;;;16.70;99.90;;;;;;5102909;27;19931;-79
2023/05/12 08:45:31;;;;;;;;;;;16.80;99.90;;;;;;5121781;27;19923;-80
2023/05/12 08:47:57;;;;;;;;;;;16.70;99.90;;;;;;5121206;27;20452;-79
2023/05/12 08:50:24;;;;;;;;;;;17.00;99.90;;;;;;5103618;27;19931;-79
2023/05/12 08:52:50;;;;;;;;;;;17.20;99.90;;;;;;5099899;27;20467;-79
2023/05/12 08:55:16;;;;;;;;;;;17.10;99.90;;;;;;5081673;27;19930;-79
2023/05/12 08:57:44;;;;;;;;;;;17.20;99.90;;;;;;5100293;27;19927;-80
2023/05/12 09:00:10;;;;;;;;;;;17.40;99.90;;;;;;5102872;28;19934;-80
2023/05/12 09:02:36;;;;;;;;;;;17.10;99.90;;;;;;5117340;27;19927;-79
2023/05/12 09:05:02;;;;;;;;;;;17.40;99.90;;;;;;5100481;28;19931;-80
2023/05/12 09:07:28;;;;;;;;;;;17.20;99.90;;;;;;5100674;27;19923;-79
2023/05/12 09:09:55;;;;;;;;;;;17.80;99.90;;;;;;5100989;28;19980;-80
2023/05/12 09:12:21;;;;;;;;;;;17.40;99.90;;;;;;5100547;28;19927;-79
2023/05/12 09:15:02;;;;;;;;;;;17.80;99.90;;;;;;5100619;28;20596;-80
2023/05/12 09:17:28;;;;;;;;;;;17.80;99.90;;;;;;5097919;28;19927;-79
2023/05/12 09:19:53;;;;;;;;;;;18.40;99.90;;;;;;5102295;28;20266;-79
2023/05/12 09:22:26;;;;;;;;;;;18.90;99.90;;;;;;5100474;28;20402;-80
2023/05/12 09:24:52;;;;;;;;;;;19.10;99.90;;;;;;5100621;28;19935;-79
2023/05/12 09:27:22;;;;;;;;;;;19.10;99.90;;;;;;5099590;28;20019;-79
2023/05/12 09:29:48;;;;;;;;;;;19.00;99.90;;;;;;5101062;28;19927;-80
2023/05/12 09:32:14;;;;;;;;;;;18.80;99.90;;;;;;5100932;28;20023;-79
2023/05/12 09:34:39;;;;;;;;;;;19.10;99.90;;;;;;5117712;28;19931;-79
2023/05/12 09:37:06;;;;;;;;;;;19.20;99.90;;;;;;5118148;28;20005;-80
2023/05/12 09:39:32;;;;;;;;;;;19.30;99.90;;;;;;5099442;28;19988;-80
2023/05/12 09:41:57;;;;;;;;;;;19.40;99.90;;;;;;5098517;28;19923;-80
2023/05/12 09:44:23;;;;;;;;;;;19.00;99.90;;;;;;5099353;28;19928;-79
2023/05/12 09:46:50;;;;;;;;;;;19.60;99.90;;;;;;5092567;28;19927;-79
2023/05/12 09:49:25;;;;;;;;;;;20.00;99.90;;;;;;5083327;28;19953;-79
2023/05/12 09:51:55;;;;;;;;;;;20.30;99.90;;;;;;5080903;27;19938;-79
2023/05/12 09:54:25;;;;;;;;;;;20.10;99.90;;;;;;5075769;28;20403;-80
2023/05/12 09:56:51;;;;;;;;;;;20.30;99.90;;;;;;5081163;28;19977;-80
2023/05/12 09:59:18;;;;;;;;;;;20.10;99.90;;;;;;5100816;27;19958;-79
2023/05/12 10:01:44;;;;;;;;;;;20.00;99.90;;;;;;5081833;28;19996;-80
2023/05/12 10:04:10;;;;;;;;;;;20.30;99.90;;;;;;5067019;28;20041;-80
2023/05/12 10:06:41;;;;;;;;;;;20.50;99.90;;;;;;5080063;28;19933;-79
2023/05/12 10:09:17;;;;;;;;;;;19.90;99.90;;;;;;5102841;28;19927;-79
2023/05/12 10:11:43;;;;;;;;;;;20.20;99.90;;;;;;5087839;28;20461;-79
2023/05/12 10:14:10;;;;;;;;;;;20.70;99.90;;;;;;5097049;28;19931;-80
2023/05/12 10:16:35;;;;;;;;;;;21.20;99.90;;;;;;5114556;27;19928;-80
2023/05/12 10:19:04;;;;;;;;;;;21.20;99.90;;;;;;5100680;28;19934;-80
2023/05/12 10:21:30;;;;;;;;;;;21.10;99.90;;;;;;5098672;27;19927;-80
2023/05/12 10:23:57;;;;;;;;;;;20.90;99.90;;;;;;5101742;27;19934;-80
2023/05/12 10:26:23;;;;;;;;;;;20.60;99.90;;;;;;5100731;27;19927;-79
2023/05/12 10:28:49;;;;;;;;;;;21.10;99.90;;;;;;5102259;27;19934;-79
2023/05/12 10:31:15;;;;;;;;;;;21.40;99.90;;;;;;5100276;27;19927;-81
2023/05/12 10:33:40;;;;;;;;;;;21.20;99.90;;;;;;5100721;27;19934;-82
2023/05/12 10:36:18;;;;;;;;;;;20.60;99.90;;;;;;5096296;27;19932;-80
2023/05/12 10:38:46;;;;;;;;;;;21.20;99.90;;;;;;5101698;27;19927;-80
2023/05/12 10:41:12;;;;;;;;;;;21.00;99.90;;;;;;5098168;27;19932;-80
2023/05/12 10:43:40;;;;;;;;;;;21.10;99.90;;;;;;5097734;27;20025;-80
2023/05/12 10:46:19;;;;;;;;;;;21.10;99.90;;;;;;5099618;27;20435;-80
2023/05/12 10:49:08;;;;;;;;;;;21.60;99.90;;;;;;5119042;27;20509;-80
2023/05/12 10:51:43;;;;;;;;;;;21.40;99.90;;;;;;5088720;27;19988;-80
2023/05/12 10:54:09;;;;;;;;;;;21.40;99.90;;;;;;5099125;27;19927;-80
2023/05/12 10:56:35;;;;;;;;;;;21.40;99.90;;;;;;5086129;27;20026;-80
2023/05/12 10:59:08;;;;;;;;;;;22.10;99.90;;;;;;5084723;27;19931;-80
2023/05/12 11:01:34;;;;;;;;;;;21.80;99.90;;;;;;5083543;27;19928;-79
2023/05/12 11:04:13;;;;;;;;;;;21.80;99.90;;;;;;5080770;27;21829;-80
2023/05/12 11:06:39;;;;;;;;;;;21.60;99.90;;;;;;5102229;27;20018;-81
2023/05/12 11:09:04;;;;;;;;;;;21.60;99.90;;;;;;5102430;27;19924;-79
2023/05/12 11:11:30;;;;;;;;;;;22.00;99.90;;;;;;5102891;27;20413;-80
2023/05/12 11:13:56;;;;;;;;;;;22.30;99.90;;;;;;5068348;27;19923;-79
2023/05/12 11:16:23;;;;;;;;;;;21.80;99.90;;;;;;5102027;27;19938;-80
2023/05/12 11:18:59;;;;;;;;;;;22.10;99.90;;;;;;5102341;27;20319;-79
2023/05/12 11:21:24;;;;;;;;;;;21.70;99.90;;;;;;5084738;27;19973;-79
2023/05/12 11:23:56;;;;;;;;;;;22.00;99.90;;;;;;5083279;27;19935;-79
2023/05/12 11:26:22;;;;;;;;;;;22.40;99.90;;;;;;5082777;27;19932;-81
2023/05/12 11:28:47;;;;;;;;;;;22.40;99.90;;;;;;5085367;27;19923;-80
2023/05/12 11:31:20;;;;;;;;;;;22.60;99.90;;;;;;5083692;27;19935;-80
2023/05/12 11:33:46;;;;;;;;;;;22.30;99.90;;;;;;5083036;27;19927;-80
2023/05/12 11:36:11;;;;;;;;;;;22.80;99.90;;;;;;5087662;27;19931;-80
2023/05/12 11:38:37;;;;;;;;;;;23.00;99.90;;;;;;5092853;27;19975;-81
2023/05/12 11:41:03;;;;;;;;;;;23.20;99.90;;;;;;5100428;27;19927;-79
2023/05/12 11:43:28;;;;;;;;;;;22.30;99.90;;;;;;5115242;27;19927;-80
2023/05/12 11:45:54;;;;;;;;;;;23.20;99.90;;;;;;5100358;27;19927;-80
2023/05/12 11:48:21;;;;;;;;;;;22.70;99.90;;;;;;5117903;27;19931;-80
2023/05/12 11:50:48;;;;;;;;;;;22.70;99.90;;;;;;5098262;27;19931;-80
2023/05/12 11:53:16;;;;;;;;;;;22.70;99.90;;;;;;5099293;27;19959;-79
2023/05/12 11:55:49;;;;;;;;;;;22.80;99.90;;;;;;5100837;27;19931;-79
2023/05/12 11:58:24;;;;;;;;;;;23.60;99.90;;;;;;5097053;27;19927;-79
2023/05/12 12:00:50;;;;;;;;;;;23.40;99.90;;;;;;5101106;27;20022;-80
2023/05/12 12:03:15;;;;;;;;;;;23.30;99.90;;;;;;5100647;27;20469;-79
2023/05/12 12:05:42;;;;;;;;;;;23.10;99.90;;;;;;5100112;27;19931;-80
2023/05/12 12:08:14;;;;;;;;;;;23.40;99.90;;;;;;5100376;27;19923;-79
2023/05/12 12:10:46;;;;;;;;;;;23.20;99.90;;;;;;5117718;27;20359;-82
2023/05/12 12:13:12;;;;;;;;;;;22.40;99.90;;;;;;5116035;27;20368;-80
2023/05/12 12:15:37;;;;;;;;;;;22.90;99.90;;;;;;5097444;27;20011;-79
2023/05/12 12:18:03;;;;;;;;;;;23.20;99.90;;;;;;5095315;27;20372;-80
2023/05/12 12:20:29;;;;;;;;;;;23.20;99.90;;;;;;5099901;27;19928;-79
2023/05/12 12:22:55;;;;;;;;;;;23.50;99.90;;;;;;5117581;27;19927;-80
2023/05/12 12:25:21;;;;;;;;;;;23.50;99.90;;;;;;5100053;27;20511;-81
2023/05/12 12:27:47;;;;;;;;;;;23.60;99.90;;;;;;5081079;27;19927;-80
2023/05/12 12:30:13;;;;;;;;;;;23.00;99.90;;;;;;5100924;27;20057;-81
2023/05/12 12:32:39;;;;;;;;;;;22.70;99.90;;;;;;5096485;27;19928;-81
2023/05/12 12:35:05;;;;;;;;;;;23.00;99.90;;;;;;5099300;27;19973;-79
2023/05/12 12:37:31;;;;;;;;;;;22.80;99.90;;;;;;5096192;27;19927;-77
2023/05/12 12:39:57;;;;;;;;;;;22.70;99.90;;;;;;5099803;27;19934;-78
2023/05/12 12:42:22;;;;;;;;;;;22.20;99.90;;;;;;5113669;27;19927;-78
2023/05/12 12:44:50;;;;;;;;;;;22.20;99.90;;;;;;5097095;27;19923;-79
2023/05/12 12:47:16;;;;;;;;;;;21.70;99.90;;;;;;5090730;28;19935;-79
2023/05/12 12:49:41;;;;;;;;;;;21.80;99.90;;;;;;5117794;27;19934;-79
2023/05/12 12:52:07;;;;;;;;;;;21.80;99.90;;;;;;5118059;27;19927;-77
2023/05/12 12:54:33;;;;;;;;;;;22.00;99.90;;;;;;5082001;27;20273;-77
2023/05/12 12:56:58;;;;;;;;;;;22.30;99.90;;;;;;5098852;27;20626;-78
2023/05/12 12:59:24;;;;;;;;;;;22.10;99.90;;;;;;5117018;27;20023;-78
2023/05/12 13:01:49;;;;;;;;;;;22.10;99.90;;;;;;5101159;27;19977;-79
2023/05/12 13:04:18;;;;;;;;;;;21.80;99.90;;;;;;5099192;27;20038;-78
2023/05/12 13:06:44;;;;;;;;;;;21.70;99.90;;;;;;5098325;27;19927;-78
2023/05/12 13:09:09;;;;;;;;;;;21.70;99.90;;;;;;5101066;27;20361;-78
2023/05/12 13:11:35;;;;;;;;;;;21.70;99.90;;;;;;5101722;27;19949;-78
2023/05/12 13:14:01;;;;;;;;;;;22.30;99.90;;;;;;5098379;28;20288;-78
2023/05/12 13:16:26;;;;;;;;;;;22.30;99.90;;;;;;5100462;28;19963;-78
2023/05/12 13:18:52;;;;;;;;;;;22.40;99.90;;;;;;5101232;28;20021;-78
2023/05/12 13:21:17;;;;;;;;;;;22.80;99.90;;;;;;5099713;28;20852;-78
2023/05/12 13:23:44;;;;;;;;;;;22.80;98.80;;;;;;5100115;28;19992;-78
2023/05/12 13:26:09;;;;;;;;;;;22.30;97.80;;;;;;5100080;28;20339;-78
2023/05/12 13:28:35;;;;;;;;;;;22.10;97.30;;;;;;5099192;28;19984;-79
2023/05/12 13:31:00;;;;;;;;;;;22.10;99.90;;;;;;5099680;28;20474;-78
2023/05/12 13:33:26;;;;;;;;;;;21.90;97.60;;;;;;5097972;28;20026;-81
2023/05/12 13:35:51;;;;;;;;;;;22.10;99.90;;;;;;5099709;28;20018;-79
2023/05/12 13:38:18;;;;;;;;;;;22.10;99.70;;;;;;5082780;28;20558;-77
2023/05/12 13:40:44;;;;;;;;;;;22.80;93.40;;;;;;5101117;28;19936;-78
2023/05/12 13:43:11;;;;;;;;;;;23.30;90.30;;;;;;5098496;28;20376;-79
2023/05/12 13:45:36;;;;;;;;;;;23.10;86.30;;;;;;5097888;28;19964;-78
2023/05/12 13:48:02;;;;;;;;;;;22.70;88.70;;;;;;5098918;28;19927;-77
2023/05/12 13:50:28;;;;;;;;;;;22.50;87.70;;;;;;5097472;28;19923;-77
2023/05/12 13:52:53;;;;;;;;;;;22.20;85.40;;;;;;5096364;28;19927;-78
2023/05/12 13:55:19;;;;;;;;;;;22.30;90.20;;;;;;5119383;27;19927;-79
2023/05/12 13:57:45;;;;;;;;;;;22.20;88.20;;;;;;5101760;27;20399;-78
2023/05/12 14:00:12;;;;;;;;;;;22.20;88.20;;;;;;5101967;27;19923;-79
2023/05/12 14:02:38;;;;;;;;;;;23.00;90.30;;;;;;5099400;27;20066;-78
2023/05/12 14:05:03;;;;;;;;;;;23.20;91.10;;;;;;5099793;27;19927;-79
2023/05/12 14:07:29;;;;;;;;;;;23.50;89.20;;;;;;5097940;27;19987;-78
2023/05/12 14:09:55;;;;;;;;;;;23.50;84.20;;;;;;5102676;27;19928;-78